sensor_id;sensor_type;location;lat;lon;timestamp;P1;durP1;ratioP1;P2;durP2;ratioP2
64282;SDS011;50497;50.720;-2.084;2024-01-06T00:01:37;0.00;;;0.00;;
64282;SDS011;50497;50.720;-2.084;2024-01-06T00:04:02;0.10;;;0.10;;
64282;SDS011;50497;50.720;-2.084;2024-01-06T00:06:27;0.00;;;0.00;;
64282;SDS011;50497;50.720;-2.084;2024-01-06T00:08:53;0.00;;;0.00;;
64282;SDS011;50497;50.720;-2.084;2024-01-06T00:11:21;0.00;;;0.00;;
64282;SDS011;50497;50.720;-2.084;2024-01-06T00:13:47;0.00;;;0.00;;
64282;SDS011;50497;50.720;-2.084;2024-01-06T00:16:13;0.00;;;0.00;;
64282;SDS011;50497;50.720;-2.084;2024-01-06T00:18:41;0.00;;;0.00;;
64282;SDS011;50497;50.720;-2.084;2024-01-06T00:21:07;0.03;;;0.03;;
64282;SDS011;50497;50.720;-2.084;2024-01-06T00:23:33;0.00;;;0.00;;
64282;SDS011;50497;50.720;-2.084;2024-01-06T00:25:58;0.03;;;0.03;;
64282;SDS011;50497;50.720;-2.084;2024-01-06T00:28:24;0.08;;;0.08;;
64282;SDS011;50497;50.720;-2.084;2024-01-06T00:30:49;0.10;;;0.10;;
64282;SDS011;50497;50.720;-2.084;2024-01-06T00:33:14;0.00;;;0.00;;
64282;SDS011;50497;50.720;-2.084;2024-01-06T00:35:40;0.05;;;0.05;;
64282;SDS011;50497;50.720;-2.084;2024-01-06T00:38:06;0.00;;;0.00;;
64282;SDS011;50497;50.720;-2.084;2024-01-06T00:40:31;0.00;;;0.00;;
64282;SDS011;50497;50.720;-2.084;2024-01-06T00:42:58;0.00;;;0.00;;
64282;SDS011;50497;50.720;-2.084;2024-01-06T00:45:24;0.00;;;0.00;;
64282;SDS011;50497;50.720;-2.084;2024-01-06T00:47:49;0.00;;;0.00;;
64282;SDS011;50497;50.720;-2.084;2024-01-06T00:50:14;0.00;;;0.00;;
64282;SDS011;50497;50.720;-2.084;2024-01-06T00:52:41;0.03;;;0.03;;
64282;SDS011;50497;50.720;-2.084;2024-01-06T00:55:06;0.00;;;0.00;;
64282;SDS011;50497;50.720;-2.084;2024-01-06T00:57:32;0.03;;;0.03;;
64282;SDS011;50497;50.720;-2.084;2024-01-06T00:59:58;0.00;;;0.00;;
64282;SDS011;50497;50.720;-2.084;2024-01-06T01:02:23;0.00;;;0.00;;
64282;SDS011;50497;50.720;-2.084;2024-01-06T01:04:49;0.00;;;0.00;;
64282;SDS011;50497;50.720;-2.084;2024-01-06T01:07:14;0.03;;;0.03;;
64282;SDS011;50497;50.720;-2.084;2024-01-06T01:09:40;0.00;;;0.00;;
64282;SDS011;50497;50.720;-2.084;2024-01-06T01:12:05;0.10;;;0.10;;
64282;SDS011;50497;50.720;-2.084;2024-01-06T01:14:30;0.08;;;0.08;;
64282;SDS011;50497;50.720;-2.084;2024-01-06T01:16:56;0.00;;;0.00;;
64282;SDS011;50497;50.720;-2.084;2024-01-06T01:19:21;0.00;;;0.00;;
64282;SDS011;50497;50.720;-2.084;2024-01-06T01:21:47;0.03;;;0.03;;
64282;SDS011;50497;50.720;-2.084;2024-01-06T01:24:12;0.10;;;0.10;;
64282;SDS011;50497;50.720;-2.084;2024-01-06T01:26:37;0.00;;;0.00;;
64282;SDS011;50497;50.720;-2.084;2024-01-06T01:29:03;0.00;;;0.00;;
64282;SDS011;50497;50.720;-2.084;2024-01-06T01:31:28;0.08;;;0.08;;
64282;SDS011;50497;50.720;-2.084;2024-01-06T01:33:54;0.00;;;0.00;;
64282;SDS011;50497;50.720;-2.084;2024-01-06T01:36:19;0.00;;;0.00;;
64282;SDS011;50497;50.720;-2.084;2024-01-06T01:38:44;0.00;;;0.00;;
64282;SDS011;50497;50.720;-2.084;2024-01-06T01:41:10;0.00;;;0.00;;
64282;SDS011;50497;50.720;-2.084;2024-01-06T01:43:35;0.00;;;0.00;;
64282;SDS011;50497;50.720;-2.084;2024-01-06T01:46:01;0.00;;;0.00;;
64282;SDS011;50497;50.720;-2.084;2024-01-06T01:48:26;0.00;;;0.00;;
64282;SDS011;50497;50.720;-2.084;2024-01-06T01:50:52;0.00;;;0.00;;
64282;SDS011;50497;50.720;-2.084;2024-01-06T01:53:18;0.00;;;0.00;;
64282;SDS011;50497;50.720;-2.084;2024-01-06T01:55:44;0.03;;;0.03;;
64282;SDS011;50497;50.720;-2.084;2024-01-06T01:58:12;0.00;;;0.00;;
64282;SDS011;50497;50.720;-2.084;2024-01-06T02:00:38;0.00;;;0.00;;
64282;SDS011;50497;50.720;-2.084;2024-01-06T02:03:04;0.00;;;0.00;;
64282;SDS011;50497;50.720;-2.084;2024-01-06T02:05:30;0.03;;;0.03;;
64282;SDS011;50497;50.720;-2.084;2024-01-06T02:07:56;0.00;;;0.00;;
64282;SDS011;50497;50.720;-2.084;2024-01-06T02:10:21;0.00;;;0.00;;
64282;SDS011;50497;50.720;-2.084;2024-01-06T02:12:48;0.00;;;0.00;;
64282;SDS011;50497;50.720;-2.084;2024-01-06T02:15:13;0.10;;;0.10;;
64282;SDS011;50497;50.720;-2.084;2024-01-06T02:17:39;0.00;;;0.00;;
64282;SDS011;50497;50.720;-2.084;2024-01-06T02:20:05;0.10;;;0.10;;
64282;SDS011;50497;50.720;-2.084;2024-01-06T02:22:33;0.00;;;0.00;;
64282;SDS011;50497;50.720;-2.084;2024-01-06T02:25:02;0.00;;;0.00;;
64282;SDS011;50497;50.720;-2.084;2024-01-06T02:27:32;0.00;;;0.00;;
64282;SDS011;50497;50.720;-2.084;2024-01-06T02:29:58;0.00;;;0.00;;
64282;SDS011;50497;50.720;-2.084;2024-01-06T02:32:24;0.00;;;0.00;;
64282;SDS011;50497;50.720;-2.084;2024-01-06T02:34:49;0.00;;;0.00;;
64282;SDS011;50497;50.720;-2.084;2024-01-06T02:37:14;0.00;;;0.00;;
64282;SDS011;50497;50.720;-2.084;2024-01-06T02:39:40;0.10;;;0.10;;
64282;SDS011;50497;50.720;-2.084;2024-01-06T02:42:05;0.00;;;0.00;;
64282;SDS011;50497;50.720;-2.084;2024-01-06T02:44:31;0.00;;;0.00;;
64282;SDS011;50497;50.720;-2.084;2024-01-06T02:46:56;0.00;;;0.00;;
64282;SDS011;50497;50.720;-2.084;2024-01-06T02:49:21;0.00;;;0.00;;
64282;SDS011;50497;50.720;-2.084;2024-01-06T02:51:47;0.00;;;0.00;;
64282;SDS011;50497;50.720;-2.084;2024-01-06T02:54:12;0.00;;;0.00;;
64282;SDS011;50497;50.720;-2.084;2024-01-06T02:56:38;0.00;;;0.00;;
64282;SDS011;50497;50.720;-2.084;2024-01-06T02:59:03;0.00;;;0.00;;
64282;SDS011;50497;50.720;-2.084;2024-01-06T03:01:29;0.00;;;0.00;;
64282;SDS011;50497;50.720;-2.084;2024-01-06T03:03:56;0.00;;;0.00;;
64282;SDS011;50497;50.720;-2.084;2024-01-06T03:06:22;0.00;;;0.00;;
64282;SDS011;50497;50.720;-2.084;2024-01-06T03:08:47;0.00;;;0.00;;
64282;SDS011;50497;50.720;-2.084;2024-01-06T03:11:12;0.00;;;0.00;;
64282;SDS011;50497;50.720;-2.084;2024-01-06T03:13:38;0.10;;;0.10;;
64282;SDS011;50497;50.720;-2.084;2024-01-06T03:16:03;0.08;;;0.08;;
64282;SDS011;50497;50.720;-2.084;2024-01-06T03:18:30;0.10;;;0.10;;
64282;SDS011;50497;50.720;-2.084;2024-01-06T03:20:55;0.00;;;0.00;;
64282;SDS011;50497;50.720;-2.084;2024-01-06T03:23:21;0.00;;;0.00;;
64282;SDS011;50497;50.720;-2.084;2024-01-06T03:25:46;0.00;;;0.00;;
64282;SDS011;50497;50.720;-2.084;2024-01-06T03:28:12;0.00;;;0.00;;
64282;SDS011;50497;50.720;-2.084;2024-01-06T03:30:37;0.00;;;0.00;;
64282;SDS011;50497;50.720;-2.084;2024-01-06T03:33:02;0.00;;;0.00;;
64282;SDS011;50497;50.720;-2.084;2024-01-06T03:35:28;0.00;;;0.00;;
64282;SDS011;50497;50.720;-2.084;2024-01-06T03:37:54;0.00;;;0.00;;
64282;SDS011;50497;50.720;-2.084;2024-01-06T03:40:20;0.10;;;0.10;;
64282;SDS011;50497;50.720;-2.084;2024-01-06T03:42:45;0.05;;;0.05;;
64282;SDS011;50497;50.720;-2.084;2024-01-06T03:45:10;0.05;;;0.05;;
64282;SDS011;50497;50.720;-2.084;2024-01-06T03:47:36;0.00;;;0.00;;
64282;SDS011;50497;50.720;-2.084;2024-01-06T03:50:01;0.00;;;0.00;;
64282;SDS011;50497;50.720;-2.084;2024-01-06T03:52:27;0.10;;;0.10;;
64282;SDS011;50497;50.720;-2.084;2024-01-06T03:54:52;0.00;;;0.00;;
64282;SDS011;50497;50.720;-2.084;2024-01-06T03:57:17;0.08;;;0.08;;
64282;SDS011;50497;50.720;-2.084;2024-01-06T03:59:43;0.00;;;0.00;;
64282;SDS011;50497;50.720;-2.084;2024-01-06T04:02:08;0.00;;;0.00;;
64282;SDS011;50497;50.720;-2.084;2024-01-06T04:04:34;0.10;;;0.10;;
64282;SDS011;50497;50.720;-2.084;2024-01-06T04:06:59;0.03;;;0.03;;
64282;SDS011;50497;50.720;-2.084;2024-01-06T04:09:26;0.03;;;0.03;;
64282;SDS011;50497;50.720;-2.084;2024-01-06T04:11:52;0.00;;;0.00;;
64282;SDS011;50497;50.720;-2.084;2024-01-06T04:14:17;0.10;;;0.10;;
64282;SDS011;50497;50.720;-2.084;2024-01-06T04:16:42;0.00;;;0.00;;
64282;SDS011;50497;50.720;-2.084;2024-01-06T04:19:08;0.08;;;0.08;;
64282;SDS011;50497;50.720;-2.084;2024-01-06T04:21:33;0.05;;;0.05;;
64282;SDS011;50497;50.720;-2.084;2024-01-06T04:23:59;0.03;;;0.03;;
64282;SDS011;50497;50.720;-2.084;2024-01-06T04:26:25;0.03;;;0.03;;
64282;SDS011;50497;50.720;-2.084;2024-01-06T04:28:50;0.10;;;0.10;;
64282;SDS011;50497;50.720;-2.084;2024-01-06T04:31:15;0.00;;;0.00;;
64282;SDS011;50497;50.720;-2.084;2024-01-06T04:33:41;0.00;;;0.00;;
64282;SDS011;50497;50.720;-2.084;2024-01-06T04:36:06;0.03;;;0.03;;
64282;SDS011;50497;50.720;-2.084;2024-01-06T04:38:32;0.00;;;0.00;;
64282;SDS011;50497;50.720;-2.084;2024-01-06T04:40:57;0.03;;;0.03;;
64282;SDS011;50497;50.720;-2.084;2024-01-06T04:43:23;0.00;;;0.00;;
64282;SDS011;50497;50.720;-2.084;2024-01-06T04:45:48;0.00;;;0.00;;
64282;SDS011;50497;50.720;-2.084;2024-01-06T04:48:15;0.00;;;0.00;;
64282;SDS011;50497;50.720;-2.084;2024-01-06T04:50:41;0.03;;;0.03;;
64282;SDS011;50497;50.720;-2.084;2024-01-06T04:53:06;0.00;;;0.00;;
64282;SDS011;50497;50.720;-2.084;2024-01-06T04:55:31;0.00;;;0.00;;
64282;SDS011;50497;50.720;-2.084;2024-01-06T04:57:57;0.00;;;0.00;;
64282;SDS011;50497;50.720;-2.084;2024-01-06T05:00:22;0.00;;;0.00;;
64282;SDS011;50497;50.720;-2.084;2024-01-06T05:02:48;0.00;;;0.00;;
64282;SDS011;50497;50.720;-2.084;2024-01-06T05:05:13;0.00;;;0.00;;
64282;SDS011;50497;50.720;-2.084;2024-01-06T05:07:39;0.20;;;0.20;;
64282;SDS011;50497;50.720;-2.084;2024-01-06T05:10:05;0.00;;;0.00;;
64282;SDS011;50497;50.720;-2.084;2024-01-06T05:12:31;0.10;;;0.10;;
64282;SDS011;50497;50.720;-2.084;2024-01-06T05:14:56;0.03;;;0.03;;
64282;SDS011;50497;50.720;-2.084;2024-01-06T05:17:21;0.10;;;0.10;;
64282;SDS011;50497;50.720;-2.084;2024-01-06T05:19:47;0.00;;;0.00;;
64282;SDS011;50497;50.720;-2.084;2024-01-06T05:22:12;0.00;;;0.00;;
64282;SDS011;50497;50.720;-2.084;2024-01-06T05:24:38;0.03;;;0.03;;
64282;SDS011;50497;50.720;-2.084;2024-01-06T05:27:03;0.00;;;0.00;;
64282;SDS011;50497;50.720;-2.084;2024-01-06T05:29:29;0.00;;;0.00;;
64282;SDS011;50497;50.720;-2.084;2024-01-06T05:31:54;0.00;;;0.00;;
64282;SDS011;50497;50.720;-2.084;2024-01-06T05:34:19;0.00;;;0.00;;
64282;SDS011;50497;50.720;-2.084;2024-01-06T05:36:45;0.00;;;0.00;;
64282;SDS011;50497;50.720;-2.084;2024-01-06T05:39:10;0.03;;;0.03;;
64282;SDS011;50497;50.720;-2.084;2024-01-06T05:41:39;0.00;;;0.00;;
64282;SDS011;50497;50.720;-2.084;2024-01-06T05:44:05;0.08;;;0.08;;
64282;SDS011;50497;50.720;-2.084;2024-01-06T05:46:31;0.00;;;0.00;;
64282;SDS011;50497;50.720;-2.084;2024-01-06T05:48:56;0.00;;;0.00;;
64282;SDS011;50497;50.720;-2.084;2024-01-06T05:51:22;0.10;;;0.10;;
64282;SDS011;50497;50.720;-2.084;2024-01-06T05:53:48;0.00;;;0.00;;
64282;SDS011;50497;50.720;-2.084;2024-01-06T05:56:26;0.10;;;0.10;;
64282;SDS011;50497;50.720;-2.084;2024-01-06T05:58:52;0.08;;;0.08;;
64282;SDS011;50497;50.720;-2.084;2024-01-06T06:01:18;0.00;;;0.00;;
64282;SDS011;50497;50.720;-2.084;2024-01-06T06:03:44;0.00;;;0.00;;
64282;SDS011;50497;50.720;-2.084;2024-01-06T06:06:11;0.00;;;0.00;;
64282;SDS011;50497;50.720;-2.084;2024-01-06T06:08:36;0.08;;;0.08;;
64282;SDS011;50497;50.720;-2.084;2024-01-06T06:11:02;0.00;;;0.00;;
64282;SDS011;50497;50.720;-2.084;2024-01-06T06:13:30;0.10;;;0.10;;
64282;SDS011;50497;50.720;-2.084;2024-01-06T06:15:55;0.00;;;0.00;;
64282;SDS011;50497;50.720;-2.084;2024-01-06T06:18:21;0.00;;;0.00;;
64282;SDS011;50497;50.720;-2.084;2024-01-06T06:20:47;0.00;;;0.00;;
64282;SDS011;50497;50.720;-2.084;2024-01-06T06:23:12;0.00;;;0.00;;
64282;SDS011;50497;50.720;-2.084;2024-01-06T06:25:38;0.10;;;0.10;;
64282;SDS011;50497;50.720;-2.084;2024-01-06T06:28:04;0.03;;;0.03;;
64282;SDS011;50497;50.720;-2.084;2024-01-06T06:30:30;0.13;;;0.13;;
64282;SDS011;50497;50.720;-2.084;2024-01-06T06:32:55;0.10;;;0.10;;
64282;SDS011;50497;50.720;-2.084;2024-01-06T06:35:21;0.10;;;0.10;;
64282;SDS011;50497;50.720;-2.084;2024-01-06T06:37:48;0.08;;;0.08;;
64282;SDS011;50497;50.720;-2.084;2024-01-06T06:40:14;0.10;;;0.10;;
64282;SDS011;50497;50.720;-2.084;2024-01-06T06:42:39;0.00;;;0.00;;
64282;SDS011;50497;50.720;-2.084;2024-01-06T06:45:05;0.00;;;0.00;;
64282;SDS011;50497;50.720;-2.084;2024-01-06T06:47:30;0.10;;;0.10;;
64282;SDS011;50497;50.720;-2.084;2024-01-06T06:49:56;0.00;;;0.00;;
64282;SDS011;50497;50.720;-2.084;2024-01-06T06:52:21;0.00;;;0.00;;
64282;SDS011;50497;50.720;-2.084;2024-01-06T06:54:46;0.05;;;0.05;;
64282;SDS011;50497;50.720;-2.084;2024-01-06T06:57:13;0.00;;;0.00;;
64282;SDS011;50497;50.720;-2.084;2024-01-06T06:59:39;0.00;;;0.00;;
64282;SDS011;50497;50.720;-2.084;2024-01-06T07:02:05;0.00;;;0.00;;
64282;SDS011;50497;50.720;-2.084;2024-01-06T07:04:31;0.10;;;0.10;;
64282;SDS011;50497;50.720;-2.084;2024-01-06T07:06:56;0.00;;;0.00;;
64282;SDS011;50497;50.720;-2.084;2024-01-06T07:09:22;0.10;;;0.10;;
64282;SDS011;50497;50.720;-2.084;2024-01-06T07:11:50;0.03;;;0.03;;
64282;SDS011;50497;50.720;-2.084;2024-01-06T07:14:16;0.00;;;0.00;;
64282;SDS011;50497;50.720;-2.084;2024-01-06T07:16:42;0.00;;;0.00;;
64282;SDS011;50497;50.720;-2.084;2024-01-06T07:19:07;0.00;;;0.00;;
64282;SDS011;50497;50.720;-2.084;2024-01-06T07:21:33;0.00;;;0.00;;
64282;SDS011;50497;50.720;-2.084;2024-01-06T07:23:58;0.03;;;0.03;;
64282;SDS011;50497;50.720;-2.084;2024-01-06T07:26:24;0.00;;;0.00;;
64282;SDS011;50497;50.720;-2.084;2024-01-06T07:28:49;0.00;;;0.00;;
64282;SDS011;50497;50.720;-2.084;2024-01-06T07:31:14;0.03;;;0.03;;
64282;SDS011;50497;50.720;-2.084;2024-01-06T07:33:40;0.00;;;0.00;;
64282;SDS011;50497;50.720;-2.084;2024-01-06T07:36:05;0.10;;;0.10;;
64282;SDS011;50497;50.720;-2.084;2024-01-06T07:38:31;0.10;;;0.10;;
64282;SDS011;50497;50.720;-2.084;2024-01-06T07:40:56;0.20;;;0.10;;
64282;SDS011;50497;50.720;-2.084;2024-01-06T07:43:22;0.15;;;0.13;;
64282;SDS011;50497;50.720;-2.084;2024-01-06T07:45:47;0.10;;;0.10;;
64282;SDS011;50497;50.720;-2.084;2024-01-06T07:48:13;0.10;;;0.10;;
64282;SDS011;50497;50.720;-2.084;2024-01-06T07:50:40;0.10;;;0.10;;
64282;SDS011;50497;50.720;-2.084;2024-01-06T07:53:05;0.10;;;0.10;;
64282;SDS011;50497;50.720;-2.084;2024-01-06T07:55:30;0.20;;;0.20;;
64282;SDS011;50497;50.720;-2.084;2024-01-06T07:57:56;0.10;;;0.10;;
64282;SDS011;50497;50.720;-2.084;2024-01-06T08:00:21;0.15;;;0.15;;
64282;SDS011;50497;50.720;-2.084;2024-01-06T08:02:47;0.10;;;0.10;;
64282;SDS011;50497;50.720;-2.084;2024-01-06T08:05:12;0.05;;;0.05;;
64282;SDS011;50497;50.720;-2.084;2024-01-06T08:07:38;0.10;;;0.10;;
64282;SDS011;50497;50.720;-2.084;2024-01-06T08:10:04;0.10;;;0.10;;
64282;SDS011;50497;50.720;-2.084;2024-01-06T08:12:30;0.03;;;0.03;;
64282;SDS011;50497;50.720;-2.084;2024-01-06T08:14:56;0.00;;;0.00;;
64282;SDS011;50497;50.720;-2.084;2024-01-06T08:17:21;0.10;;;0.10;;
64282;SDS011;50497;50.720;-2.084;2024-01-06T08:19:47;0.20;;;0.20;;
64282;SDS011;50497;50.720;-2.084;2024-01-06T08:22:12;0.20;;;0.20;;
64282;SDS011;50497;50.720;-2.084;2024-01-06T08:24:38;0.15;;;0.15;;
64282;SDS011;50497;50.720;-2.084;2024-01-06T08:27:04;0.28;;;0.28;;
64282;SDS011;50497;50.720;-2.084;2024-01-06T08:29:30;0.22;;;0.22;;
64282;SDS011;50497;50.720;-2.084;2024-01-06T08:31:55;0.30;;;0.30;;
64282;SDS011;50497;50.720;-2.084;2024-01-06T08:34:21;0.28;;;0.20;;
64282;SDS011;50497;50.720;-2.084;2024-01-06T08:36:47;0.17;;;0.17;;
64282;SDS011;50497;50.720;-2.084;2024-01-06T08:39:12;0.32;;;0.32;;
64282;SDS011;50497;50.720;-2.084;2024-01-06T08:41:38;0.20;;;0.20;;
64282;SDS011;50497;50.720;-2.084;2024-01-06T08:44:03;0.80;;;0.30;;
64282;SDS011;50497;50.720;-2.084;2024-01-06T08:46:29;0.50;;;0.30;;
64282;SDS011;50497;50.720;-2.084;2024-01-06T08:48:55;0.70;;;0.35;;
64282;SDS011;50497;50.720;-2.084;2024-01-06T08:51:21;0.77;;;0.40;;
64282;SDS011;50497;50.720;-2.084;2024-01-06T08:53:46;0.40;;;0.22;;
64282;SDS011;50497;50.720;-2.084;2024-01-06T08:56:12;0.20;;;0.20;;
64282;SDS011;50497;50.720;-2.084;2024-01-06T08:58:37;0.35;;;0.35;;
64282;SDS011;50497;50.720;-2.084;2024-01-06T09:01:03;0.32;;;0.30;;
64282;SDS011;50497;50.720;-2.084;2024-01-06T09:03:28;0.43;;;0.43;;
64282;SDS011;50497;50.720;-2.084;2024-01-06T09:05:55;0.50;;;0.50;;
64282;SDS011;50497;50.720;-2.084;2024-01-06T09:08:22;0.40;;;0.40;;
64282;SDS011;50497;50.720;-2.084;2024-01-06T09:10:49;0.13;;;0.13;;
64282;SDS011;50497;50.720;-2.084;2024-01-06T09:13:16;0.10;;;0.10;;
64282;SDS011;50497;50.720;-2.084;2024-01-06T09:15:42;0.22;;;0.20;;
64282;SDS011;50497;50.720;-2.084;2024-01-06T09:18:08;0.13;;;0.13;;
64282;SDS011;50497;50.720;-2.084;2024-01-06T09:20:34;0.20;;;0.20;;
64282;SDS011;50497;50.720;-2.084;2024-01-06T09:22:59;0.13;;;0.13;;
64282;SDS011;50497;50.720;-2.084;2024-01-06T09:25:25;0.10;;;0.10;;
64282;SDS011;50497;50.720;-2.084;2024-01-06T09:27:52;0.22;;;0.22;;
64282;SDS011;50497;50.720;-2.084;2024-01-06T09:32:43;0.10;;;0.10;;
64282;SDS011;50497;50.720;-2.084;2024-01-06T09:35:08;0.08;;;0.08;;
64282;SDS011;50497;50.720;-2.084;2024-01-06T09:37:34;0.20;;;0.20;;
64282;SDS011;50497;50.720;-2.084;2024-01-06T09:39:59;0.10;;;0.10;;
64282;SDS011;50497;50.720;-2.084;2024-01-06T09:42:25;0.20;;;0.20;;
64282;SDS011;50497;50.720;-2.084;2024-01-06T09:44:50;0.20;;;0.20;;
64282;SDS011;50497;50.720;-2.084;2024-01-06T09:47:16;0.25;;;0.25;;
64282;SDS011;50497;50.720;-2.084;2024-01-06T09:49:45;0.17;;;0.17;;
64282;SDS011;50497;50.720;-2.084;2024-01-06T09:52:14;0.20;;;0.20;;
64282;SDS011;50497;50.720;-2.084;2024-01-06T09:54:43;0.20;;;0.20;;
64282;SDS011;50497;50.720;-2.084;2024-01-06T09:57:15;0.10;;;0.10;;
64282;SDS011;50497;50.720;-2.084;2024-01-06T09:59:42;0.05;;;0.05;;
64282;SDS011;50497;50.720;-2.084;2024-01-06T10:02:09;0.10;;;0.10;;
64282;SDS011;50497;50.720;-2.084;2024-01-06T10:04:39;0.32;;;0.20;;
64282;SDS011;50497;50.720;-2.084;2024-01-06T10:07:04;0.10;;;0.10;;
64282;SDS011;50497;50.720;-2.084;2024-01-06T10:09:30;0.15;;;0.15;;
64282;SDS011;50497;50.720;-2.084;2024-01-06T10:11:56;0.10;;;0.10;;
64282;SDS011;50497;50.720;-2.084;2024-01-06T10:14:24;0.10;;;0.10;;
64282;SDS011;50497;50.720;-2.084;2024-01-06T10:16:51;0.28;;;0.20;;
64282;SDS011;50497;50.720;-2.084;2024-01-06T10:19:17;0.10;;;0.10;;
64282;SDS011;50497;50.720;-2.084;2024-01-06T10:21:43;0.03;;;0.03;;
64282;SDS011;50497;50.720;-2.084;2024-01-06T10:24:09;0.10;;;0.10;;
64282;SDS011;50497;50.720;-2.084;2024-01-06T10:26:35;0.30;;;0.30;;
64282;SDS011;50497;50.720;-2.084;2024-01-06T10:29:01;0.70;;;0.32;;
64282;SDS011;50497;50.720;-2.084;2024-01-06T10:31:27;0.65;;;0.38;;
64282;SDS011;50497;50.720;-2.084;2024-01-06T10:33:52;0.85;;;0.50;;
64282;SDS011;50497;50.720;-2.084;2024-01-06T10:36:19;0.30;;;0.30;;
64282;SDS011;50497;50.720;-2.084;2024-01-06T10:38:45;1.17;;;0.60;;
64282;SDS011;50497;50.720;-2.084;2024-01-06T10:41:10;1.10;;;0.70;;
64282;SDS011;50497;50.720;-2.084;2024-01-06T10:43:37;1.20;;;0.52;;
64282;SDS011;50497;50.720;-2.084;2024-01-06T10:46:05;0.57;;;0.57;;
64282;SDS011;50497;50.720;-2.084;2024-01-06T10:48:36;0.65;;;0.30;;
64282;SDS011;50497;50.720;-2.084;2024-01-06T10:51:09;0.65;;;0.47;;
64282;SDS011;50497;50.720;-2.084;2024-01-06T10:53:35;0.73;;;0.50;;
64282;SDS011;50497;50.720;-2.084;2024-01-06T10:56:02;1.08;;;0.50;;
64282;SDS011;50497;50.720;-2.084;2024-01-06T10:58:29;1.33;;;0.57;;
64282;SDS011;50497;50.720;-2.084;2024-01-06T11:01:02;0.60;;;0.60;;
64282;SDS011;50497;50.720;-2.084;2024-01-06T11:03:29;0.80;;;0.63;;
64282;SDS011;50497;50.720;-2.084;2024-01-06T11:05:56;1.05;;;0.68;;
64282;SDS011;50497;50.720;-2.084;2024-01-06T11:08:22;0.45;;;0.45;;
64282;SDS011;50497;50.720;-2.084;2024-01-06T11:10:50;0.25;;;0.25;;
64282;SDS011;50497;50.720;-2.084;2024-01-06T11:13:21;0.52;;;0.40;;
64282;SDS011;50497;50.720;-2.084;2024-01-06T11:15:48;0.30;;;0.30;;
64282;SDS011;50497;50.720;-2.084;2024-01-06T11:18:33;0.45;;;0.45;;
64282;SDS011;50497;50.720;-2.084;2024-01-06T11:21:20;0.43;;;0.35;;
64282;SDS011;50497;50.720;-2.084;2024-01-06T11:24:08;0.85;;;0.40;;
64282;SDS011;50497;50.720;-2.084;2024-01-06T11:26:38;0.60;;;0.50;;
64282;SDS011;50497;50.720;-2.084;2024-01-06T11:29:07;0.30;;;0.30;;
64282;SDS011;50497;50.720;-2.084;2024-01-06T11:31:33;0.50;;;0.50;;
64282;SDS011;50497;50.720;-2.084;2024-01-06T11:36:44;0.40;;;0.38;;
64282;SDS011;50497;50.720;-2.084;2024-01-06T11:42:15;0.35;;;0.30;;
64282;SDS011;50497;50.720;-2.084;2024-01-06T11:44:43;0.57;;;0.40;;
64282;SDS011;50497;50.720;-2.084;2024-01-06T11:47:10;0.30;;;0.30;;
64282;SDS011;50497;50.720;-2.084;2024-01-06T11:49:37;0.20;;;0.20;;
64282;SDS011;50497;50.720;-2.084;2024-01-06T11:52:02;0.20;;;0.20;;
64282;SDS011;50497;50.720;-2.084;2024-01-06T11:54:28;0.20;;;0.10;;
64282;SDS011;50497;50.720;-2.084;2024-01-06T11:56:54;0.30;;;0.30;;
64282;SDS011;50497;50.720;-2.084;2024-01-06T11:59:21;0.30;;;0.20;;
64282;SDS011;50497;50.720;-2.084;2024-01-06T12:01:46;0.22;;;0.22;;
64282;SDS011;50497;50.720;-2.084;2024-01-06T12:04:15;0.13;;;0.13;;
64282;SDS011;50497;50.720;-2.084;2024-01-06T12:06:40;0.10;;;0.10;;
64282;SDS011;50497;50.720;-2.084;2024-01-06T12:09:07;0.30;;;0.17;;
64282;SDS011;50497;50.720;-2.084;2024-01-06T12:13:58;0.20;;;0.15;;
64282;SDS011;50497;50.720;-2.084;2024-01-06T12:16:24;0.20;;;0.20;;
64282;SDS011;50497;50.720;-2.084;2024-01-06T12:18:53;0.20;;;0.20;;
64282;SDS011;50497;50.720;-2.084;2024-01-06T12:21:22;0.32;;;0.32;;
64282;SDS011;50497;50.720;-2.084;2024-01-06T12:23:48;0.35;;;0.35;;
64282;SDS011;50497;50.720;-2.084;2024-01-06T12:26:13;0.60;;;0.60;;
64282;SDS011;50497;50.720;-2.084;2024-01-06T12:28:39;0.80;;;0.80;;
64282;SDS011;50497;50.720;-2.084;2024-01-06T12:31:05;0.90;;;0.90;;
64282;SDS011;50497;50.720;-2.084;2024-01-06T12:33:34;0.60;;;0.60;;
64282;SDS011;50497;50.720;-2.084;2024-01-06T12:36:02;0.50;;;0.50;;
64282;SDS011;50497;50.720;-2.084;2024-01-06T12:38:29;0.40;;;0.40;;
64282;SDS011;50497;50.720;-2.084;2024-01-06T12:40:55;0.73;;;0.73;;
64282;SDS011;50497;50.720;-2.084;2024-01-06T12:43:21;0.30;;;0.30;;
64282;SDS011;50497;50.720;-2.084;2024-01-06T12:45:46;0.50;;;0.50;;
64282;SDS011;50497;50.720;-2.084;2024-01-06T12:48:12;0.20;;;0.20;;
64282;SDS011;50497;50.720;-2.084;2024-01-06T12:50:38;0.30;;;0.30;;
64282;SDS011;50497;50.720;-2.084;2024-01-06T12:53:03;0.10;;;0.10;;
64282;SDS011;50497;50.720;-2.084;2024-01-06T12:55:28;0.10;;;0.10;;
64282;SDS011;50497;50.720;-2.084;2024-01-06T12:57:54;0.10;;;0.10;;
64282;SDS011;50497;50.720;-2.084;2024-01-06T13:00:19;0.28;;;0.10;;
64282;SDS011;50497;50.720;-2.084;2024-01-06T13:02:45;0.10;;;0.10;;
64282;SDS011;50497;50.720;-2.084;2024-01-06T13:05:10;0.20;;;0.20;;
64282;SDS011;50497;50.720;-2.084;2024-01-06T13:07:38;0.38;;;0.30;;
64282;SDS011;50497;50.720;-2.084;2024-01-06T13:10:04;0.20;;;0.20;;
64282;SDS011;50497;50.720;-2.084;2024-01-06T13:12:30;0.20;;;0.20;;
64282;SDS011;50497;50.720;-2.084;2024-01-06T13:14:56;0.00;;;0.00;;
64282;SDS011;50497;50.720;-2.084;2024-01-06T13:17:21;0.10;;;0.10;;
64282;SDS011;50497;50.720;-2.084;2024-01-06T13:19:47;0.00;;;0.00;;
64282;SDS011;50497;50.720;-2.084;2024-01-06T13:22:12;0.00;;;0.00;;
64282;SDS011;50497;50.720;-2.084;2024-01-06T13:24:39;0.00;;;0.00;;
64282;SDS011;50497;50.720;-2.084;2024-01-06T13:27:05;0.15;;;0.15;;
64282;SDS011;50497;50.720;-2.084;2024-01-06T13:29:31;0.30;;;0.30;;
64282;SDS011;50497;50.720;-2.084;2024-01-06T13:31:57;0.13;;;0.13;;
64282;SDS011;50497;50.720;-2.084;2024-01-06T13:34:24;0.20;;;0.20;;
64282;SDS011;50497;50.720;-2.084;2024-01-06T13:36:50;0.10;;;0.10;;
64282;SDS011;50497;50.720;-2.084;2024-01-06T13:39:15;0.10;;;0.10;;
64282;SDS011;50497;50.720;-2.084;2024-01-06T13:41:48;0.30;;;0.20;;
64282;SDS011;50497;50.720;-2.084;2024-01-06T13:44:14;0.10;;;0.10;;
64282;SDS011;50497;50.720;-2.084;2024-01-06T13:46:40;0.03;;;0.03;;
64282;SDS011;50497;50.720;-2.084;2024-01-06T13:49:13;0.03;;;0.03;;
64282;SDS011;50497;50.720;-2.084;2024-01-06T13:51:41;0.00;;;0.00;;
64282;SDS011;50497;50.720;-2.084;2024-01-06T13:54:08;0.00;;;0.00;;
64282;SDS011;50497;50.720;-2.084;2024-01-06T13:56:34;0.10;;;0.10;;
64282;SDS011;50497;50.720;-2.084;2024-01-06T13:59:00;0.00;;;0.00;;
64282;SDS011;50497;50.720;-2.084;2024-01-06T14:01:25;0.00;;;0.00;;
64282;SDS011;50497;50.720;-2.084;2024-01-06T14:03:51;0.00;;;0.00;;
64282;SDS011;50497;50.720;-2.084;2024-01-06T14:06:22;0.00;;;0.00;;
64282;SDS011;50497;50.720;-2.084;2024-01-06T14:08:58;0.10;;;0.10;;
64282;SDS011;50497;50.720;-2.084;2024-01-06T14:11:25;0.00;;;0.00;;
64282;SDS011;50497;50.720;-2.084;2024-01-06T14:13:57;0.10;;;0.10;;
64282;SDS011;50497;50.720;-2.084;2024-01-06T14:16:23;0.00;;;0.00;;
64282;SDS011;50497;50.720;-2.084;2024-01-06T14:18:48;0.00;;;0.00;;
64282;SDS011;50497;50.720;-2.084;2024-01-06T14:21:14;0.00;;;0.00;;
64282;SDS011;50497;50.720;-2.084;2024-01-06T14:23:41;0.00;;;0.00;;
64282;SDS011;50497;50.720;-2.084;2024-01-06T14:26:06;0.10;;;0.10;;
64282;SDS011;50497;50.720;-2.084;2024-01-06T14:28:32;0.08;;;0.08;;
64282;SDS011;50497;50.720;-2.084;2024-01-06T14:30:57;0.00;;;0.00;;
64282;SDS011;50497;50.720;-2.084;2024-01-06T14:33:23;0.00;;;0.00;;
64282;SDS011;50497;50.720;-2.084;2024-01-06T14:35:49;0.03;;;0.03;;
64282;SDS011;50497;50.720;-2.084;2024-01-06T14:38:14;0.00;;;0.00;;